Time;durP1;ratioP1;P1;durP2;ratioP2;P2;SDS_P1;SDS_P2;PMS_P1;PMS_P2;Temp;Humidity;BMP_temperature;BMP_pressure;BME280_temperature;BME280_humidity;BME280_pressure;Samples;Min_cycle;Max_cycle;Signal;HPM_P1;HPM_P2
2021/06/06 00:01:42;;;;;;;16.85;15.35;;;;;;;;;;5004724;28;20218;-59
2021/06/06 00:04:14;;;;;;;17.10;15.52;;;;;;;;;;5008654;28;20183;-57
2021/06/06 00:06:40;;;;;;;17.17;15.48;;;;;;;;;;5010425;28;20194;-57
2021/06/06 00:09:11;;;;;;;15.45;14.05;;;;;;;;;;5003862;28;20745;-57
2021/06/06 00:11:43;;;;;;;17.05;15.35;;;;;;;;;;4986976;28;20198;-58
2021/06/06 00:14:13;;;;;;;16.08;14.40;;;;;;;;;;5000583;28;20207;-57
2021/06/06 00:16:42;;;;;;;16.60;15.02;;;;;;;;;;5002565;28;20203;-57
2021/06/06 00:19:08;;;;;;;15.55;14.05;;;;;;;;;;5008371;28;20188;-57
2021/06/06 00:21:35;;;;;;;17.08;15.43;;;;;;;;;;4990300;28;20191;-58
2021/06/06 00:24:05;;;;;;;15.48;14.15;;;;;;;;;;4997446;28;20204;-56
2021/06/06 00:26:33;;;;;;;17.15;15.50;;;;;;;;;;5003903;28;20629;-58
2021/06/06 00:28:59;;;;;;;16.42;15.00;;;;;;;;;;5008245;28;20211;-58
2021/06/06 00:31:27;;;;;;;16.63;15.00;;;;;;;;;;5011279;28;20226;-57
2021/06/06 00:33:52;;;;;;;17.88;16.27;;;;;;;;;;5008521;28;20282;-58
2021/06/06 00:36:19;;;;;;;17.02;15.45;;;;;;;;;;5013657;28;20290;-58
2021/06/06 00:38:44;;;;;;;17.00;15.43;;;;;;;;;;5009825;28;20183;-57
2021/06/06 00:41:12;;;;;;;17.63;15.77;;;;;;;;;;5010987;28;20194;-57
2021/06/06 00:43:38;;;;;;;18.55;16.83;;;;;;;;;;5014309;28;20195;-57
2021/06/06 00:46:04;;;;;;;18.05;16.45;;;;;;;;;;4992064;28;20634;-58
2021/06/06 00:48:29;;;;;;;18.73;15.50;;;;;;;;;;5010851;28;20269;-59
2021/06/06 00:50:59;;;;;;;18.38;16.55;;;;;;;;;;5013539;28;20291;-58
2021/06/06 00:53:32;;;;;;;18.15;16.45;;;;;;;;;;5003287;28;20245;-59
2021/06/06 00:55:58;;;;;;;18.17;16.42;;;;;;;;;;5007382;28;20227;-58
2021/06/06 00:58:24;;;;;;;18.48;16.63;;;;;;;;;;5001005;28;20771;-57
2021/06/06 01:00:52;;;;;;;19.38;17.58;;;;;;;;;;4992081;28;20184;-58
2021/06/06 01:03:22;;;;;;;20.00;18.02;;;;;;;;;;5007696;28;20179;-60
2021/06/06 01:05:51;;;;;;;19.70;17.80;;;;;;;;;;5011037;28;20194;-58
2021/06/06 01:08:19;;;;;;;20.35;18.60;;;;;;;;;;5009848;28;20187;-58
2021/06/06 01:10:46;;;;;;;22.08;19.88;;;;;;;;;;5009915;28;20188;-56
2021/06/06 01:13:19;;;;;;;20.73;18.77;;;;;;;;;;5008161;28;20248;-58
2021/06/06 01:15:47;;;;;;;22.42;20.25;;;;;;;;;;5005218;28;20222;-57
2021/06/06 01:18:24;;;;;;;22.92;20.40;;;;;;;;;;4991741;28;20246;-58
2021/06/06 01:21:05;;;;;;;25.30;22.80;;;;;;;;;;5019161;28;20183;-59
2021/06/06 01:24:04;;;;;;;26.67;23.35;;;;;;;;;;5002832;28;20209;-59
2021/06/06 01:26:32;;;;;;;26.05;23.40;;;;;;;;;;4997234;28;20230;-57
2021/06/06 01:29:11;;;;;;;27.63;24.85;;;;;;;;;;4992061;28;20248;-57
2021/06/06 01:31:42;;;;;;;26.67;24.15;;;;;;;;;;4997173;28;20199;-58
2021/06/06 01:34:10;;;;;;;28.45;25.67;;;;;;;;;;5002717;28;20217;-58
2021/06/06 01:36:40;;;;;;;27.58;24.92;;;;;;;;;;5004242;28;20219;-58
2021/06/06 01:39:13;;;;;;;28.27;25.25;;;;;;;;;;5004772;28;20695;-58
2021/06/06 01:41:42;;;;;;;29.88;26.58;;;;;;;;;;5008200;28;20193;-58
2021/06/06 01:44:11;;;;;;;28.65;25.80;;;;;;;;;;5009384;28;20214;-59
2021/06/06 01:46:46;;;;;;;30.98;27.67;;;;;;;;;;5012294;23;20250;-61
2021/06/06 01:49:17;;;;;;;30.58;27.63;;;;;;;;;;4996221;28;20682;-62
2021/06/06 01:51:46;;;;;;;30.85;27.73;;;;;;;;;;5001231;28;20609;-61
2021/06/06 01:54:17;;;;;;;32.67;29.27;;;;;;;;;;4978810;28;20221;-61
2021/06/06 01:56:46;;;;;;;32.97;29.75;;;;;;;;;;4988590;28;20227;-61
2021/06/06 01:59:18;;;;;;;32.97;29.73;;;;;;;;;;4988376;28;20242;-61
2021/06/06 02:01:45;;;;;;;33.38;29.80;;;;;;;;;;4979677;28;20200;-61
2021/06/06 02:04:11;;;;;;;34.00;30.50;;;;;;;;;;4988702;28;20223;-61
2021/06/06 02:06:54;;;;;;;33.45;30.05;;;;;;;;;;4991133;28;20212;-61
2021/06/06 02:09:23;;;;;;;34.65;31.17;;;;;;;;;;4979784;28;20304;-62
2021/06/06 02:11:52;;;;;;;35.78;31.60;;;;;;;;;;4981413;28;20528;-60
2021/06/06 02:14:23;;;;;;;40.13;32.15;;;;;;;;;;4982892;28;20211;-61
2021/06/06 02:16:54;;;;;;;34.92;31.17;;;;;;;;;;4978436;28;20209;-61
2021/06/06 02:19:24;;;;;;;37.88;32.70;;;;;;;;;;4986250;28;20735;-60
2021/06/06 02:21:54;;;;;;;37.30;33.47;;;;;;;;;;4996431;28;20280;-61
2021/06/06 02:24:23;;;;;;;36.08;32.08;;;;;;;;;;4988010;28;20195;-60
2021/06/06 02:27:01;;;;;;;35.85;32.05;;;;;;;;;;4988412;28;20204;-61
2021/06/06 02:29:41;;;;;;;35.17;31.38;;;;;;;;;;4982312;28;20777;-60
2021/06/06 02:32:38;;;;;;;37.25;33.38;;;;;;;;;;4990555;28;20548;-61
2021/06/06 02:35:19;;;;;;;38.50;34.40;;;;;;;;;;4987903;28;20242;-61
2021/06/06 02:37:54;;;;;;;37.08;33.17;;;;;;;;;;4982699;28;20204;-60
2021/06/06 02:40:32;;;;;;;39.33;34.97;;;;;;;;;;4981849;28;20278;-60
2021/06/06 02:43:23;;;;;;;39.80;34.38;;;;;;;;;;4981060;28;20560;-60
2021/06/06 02:45:53;;;;;;;41.47;36.10;;;;;;;;;;4986560;28;20501;-61
2021/06/06 02:48:24;;;;;;;38.25;33.25;;;;;;;;;;5001924;28;20836;-61
2021/06/06 02:50:52;;;;;;;41.72;35.40;;;;;;;;;;4992962;28;20657;-61
2021/06/06 02:53:28;;;;;;;41.92;35.58;;;;;;;;;;4981717;28;20327;-61
2021/06/06 02:55:59;;;;;;;46.38;36.42;;;;;;;;;;4975462;28;20227;-62
2021/06/06 02:58:47;;;;;;;47.33;38.83;;;;;;;;;;4982676;28;20180;-59
2021/06/06 03:01:22;;;;;;;50.20;39.00;;;;;;;;;;4984586;28;20189;-62
2021/06/06 03:03:49;;;;;;;49.67;40.17;;;;;;;;;;4979224;28;20187;-62
2021/06/06 03:06:23;;;;;;;47.05;38.72;;;;;;;;;;4983159;28;20203;-60
2021/06/06 03:08:48;;;;;;;44.45;37.63;;;;;;;;;;4982983;28;20195;-61
2021/06/06 03:11:22;;;;;;;50.42;41.17;;;;;;;;;;4988060;28;20183;-60
2021/06/06 03:13:55;;;;;;;49.17;41.92;;;;;;;;;;4987424;28;20243;-60
2021/06/06 03:16:23;;;;;;;48.50;40.67;;;;;;;;;;4983269;28;20208;-61
2021/06/06 03:18:55;;;;;;;52.70;40.58;;;;;;;;;;4980964;28;20199;-60
2021/06/06 03:21:26;;;;;;;57.13;43.83;;;;;;;;;;4989779;28;20232;-60
2021/06/06 03:24:06;;;;;;;52.33;43.42;;;;;;;;;;4981783;28;20250;-61
2021/06/06 03:26:35;;;;;;;51.40;40.72;;;;;;;;;;4984314;28;20219;-60
2021/06/06 03:29:05;;;;;;;56.20;42.60;;;;;;;;;;4987644;28;20716;-61
2021/06/06 03:31:36;;;;;;;56.92;43.53;;;;;;;;;;4982943;28;20648;-60
2021/06/06 03:34:06;;;;;;;59.22;44.80;;;;;;;;;;4972368;28;20188;-60
2021/06/06 03:36:39;;;;;;;63.42;45.33;;;;;;;;;;4980470;28;20231;-61
2021/06/06 03:39:08;;;;;;;59.63;44.70;;;;;;;;;;4988898;28;20481;-61
2021/06/06 03:41:36;;;;;;;62.75;46.45;;;;;;;;;;4984596;28;20207;-60
2021/06/06 03:44:06;;;;;;;67.43;46.92;;;;;;;;;;4980264;28;20685;-60
2021/06/06 03:46:37;;;;;;;65.93;47.08;;;;;;;;;;4989216;28;20238;-61
2021/06/06 03:49:07;;;;;;;66.85;46.53;;;;;;;;;;4988501;28;20193;-61
2021/06/06 03:51:32;;;;;;;69.80;48.38;;;;;;;;;;4985405;28;20868;-60
2021/06/06 03:54:01;;;;;;;72.07;48.55;;;;;;;;;;4996035;28;20231;-61
2021/06/06 03:56:33;;;;;;;61.95;46.33;;;;;;;;;;4988529;28;20204;-60
2021/06/06 03:58:58;;;;;;;63.40;46.53;;;;;;;;;;4987204;28;20207;-61
2021/06/06 04:01:24;;;;;;;64.70;46.90;;;;;;;;;;4987067;28;20196;-60
2021/06/06 04:03:52;;;;;;;67.63;46.50;;;;;;;;;;4988610;28;20270;-61
2021/06/06 04:06:17;;;;;;;64.20;45.50;;;;;;;;;;4988421;28;20250;-60
2021/06/06 04:08:45;;;;;;;62.15;45.45;;;;;;;;;;4988166;28;20627;-60
2021/06/06 04:11:12;;;;;;;61.85;44.75;;;;;;;;;;4984386;28;20660;-61
2021/06/06 04:13:37;;;;;;;59.92;41.42;;;;;;;;;;4979177;28;20211;-60
2021/06/06 04:16:05;;;;;;;61.65;42.38;;;;;;;;;;4979963;28;20207;-60
2021/06/06 04:18:32;;;;;;;63.78;44.75;;;;;;;;;;4984970;28;20197;-60
2021/06/06 04:21:00;;;;;;;63.92;45.50;;;;;;;;;;4981911;28;20202;-61
2021/06/06 04:23:28;;;;;;;63.08;45.38;;;;;;;;;;4977815;28;20197;-60
2021/06/06 04:25:56;;;;;;;66.45;46.47;;;;;;;;;;4975821;28;20204;-60
2021/06/06 04:28:25;;;;;;;73.65;46.80;;;;;;;;;;4978285;28;20222;-62
2021/06/06 04:30:53;;;;;;;70.53;47.38;;;;;;;;;;4976517;28;20230;-61
2021/06/06 04:33:21;;;;;;;75.65;48.55;;;;;;;;;;4983417;28;20191;-62
2021/06/06 04:35:49;;;;;;;96.40;48.08;;;;;;;;;;4980817;28;20295;-61
2021/06/06 04:38:20;;;;;;;75.80;46.88;;;;;;;;;;4973223;28;20672;-61
2021/06/06 04:40:51;;;;;;;76.07;46.85;;;;;;;;;;4983815;28;20239;-61
2021/06/06 04:43:17;;;;;;;73.43;43.90;;;;;;;;;;4984623;28;20242;-61
2021/06/06 04:45:45;;;;;;;88.28;48.60;;;;;;;;;;4982460;28;20247;-62
2021/06/06 04:48:12;;;;;;;92.28;47.92;;;;;;;;;;4987460;28;20188;-61
2021/06/06 04:50:38;;;;;;;91.93;44.80;;;;;;;;;;4981054;28;20192;-61
2021/06/06 04:53:09;;;;;;;115.97;46.35;;;;;;;;;;4993199;28;20199;-61
2021/06/06 04:55:34;;;;;;;89.25;44.78;;;;;;;;;;4984534;28;20639;-62
2021/06/06 04:58:00;;;;;;;85.28;44.33;;;;;;;;;;4979077;28;20188;-61
2021/06/06 05:00:29;;;;;;;80.15;42.92;;;;;;;;;;4981237;28;20314;-61
2021/06/06 05:02:57;;;;;;;73.82;42.10;;;;;;;;;;4982711;28;20200;-61
2021/06/06 05:05:25;;;;;;;70.53;42.35;;;;;;;;;;4976146;28;20250;-62
2021/06/06 05:07:56;;;;;;;70.07;43.42;;;;;;;;;;4997900;28;20673;-60
2021/06/06 05:10:26;;;;;;;73.90;44.55;;;;;;;;;;4981231;28;20192;-61
2021/06/06 05:12:51;;;;;;;99.75;46.88;;;;;;;;;;4988401;28;20192;-61
2021/06/06 05:15:21;;;;;;;91.07;48.97;;;;;;;;;;4987663;28;20689;-60
2021/06/06 05:17:48;;;;;;;97.28;48.08;;;;;;;;;;4994913;28;20653;-61
2021/06/06 05:20:20;;;;;;;99.68;47.85;;;;;;;;;;4991319;28;20271;-61
2021/06/06 05:22:45;;;;;;;107.25;49.70;;;;;;;;;;4992216;28;20190;-60
2021/06/06 05:25:12;;;;;;;95.88;47.35;;;;;;;;;;4986835;28;20240;-60
2021/06/06 05:27:43;;;;;;;83.65;47.00;;;;;;;;;;4984975;28;20206;-61
2021/06/06 05:30:11;;;;;;;73.85;45.13;;;;;;;;;;4980061;28;20243;-61
2021/06/06 05:32:39;;;;;;;87.85;47.88;;;;;;;;;;4993051;28;20271;-61
2021/06/06 05:35:05;;;;;;;93.28;47.30;;;;;;;;;;4987746;28;20250;-61
2021/06/06 05:37:30;;;;;;;98.10;51.10;;;;;;;;;;4989099;28;20226;-61
2021/06/06 05:40:01;;;;;;;98.07;50.08;;;;;;;;;;4986071;28;20208;-60
2021/06/06 05:42:29;;;;;;;95.20;48.33;;;;;;;;;;4980810;28;20195;-61
2021/06/06 05:44:57;;;;;;;96.55;48.75;;;;;;;;;;4977558;28;20239;-60
2021/06/06 05:47:27;;;;;;;109.47;48.97;;;;;;;;;;4977001;28;20287;-61
2021/06/06 05:49:52;;;;;;;91.35;47.90;;;;;;;;;;4981440;28;20267;-62
2021/06/06 05:52:17;;;;;;;98.68;48.60;;;;;;;;;;4989303;28;20278;-60
2021/06/06 05:54:47;;;;;;;81.97;49.20;;;;;;;;;;4985643;28;20215;-61
2021/06/06 05:57:15;;;;;;;100.68;48.85;;;;;;;;;;4980664;28;20702;-61
2021/06/06 05:59:40;;;;;;;92.55;49.40;;;;;;;;;;4977045;28;20727;-60
2021/06/06 06:02:06;;;;;;;97.90;50.40;;;;;;;;;;4979653;28;20197;-60
2021/06/06 06:04:34;;;;;;;86.68;50.10;;;;;;;;;;4987774;28;20243;-60
2021/06/06 06:07:03;;;;;;;85.65;49.90;;;;;;;;;;4981133;28;20219;-61
2021/06/06 06:09:31;;;;;;;98.72;49.55;;;;;;;;;;4987462;28;20257;-61
2021/06/06 06:11:58;;;;;;;97.53;51.53;;;;;;;;;;4993103;28;20274;-61
2021/06/06 06:14:26;;;;;;;93.03;51.72;;;;;;;;;;4979538;28;20212;-61
2021/06/06 06:16:53;;;;;;;103.57;53.13;;;;;;;;;;4985830;28;20875;-60
2021/06/06 06:19:20;;;;;;;116.18;54.80;;;;;;;;;;4985933;28;20191;-61
2021/06/06 06:21:48;;;;;;;109.28;55.05;;;;;;;;;;5000896;28;20802;-61
2021/06/06 06:24:15;;;;;;;89.85;52.72;;;;;;;;;;4989045;28;20215;-61
2021/06/06 06:26:41;;;;;;;104.40;53.80;;;;;;;;;;4983443;28;20205;-60
2021/06/06 06:29:10;;;;;;;117.63;54.60;;;;;;;;;;4979646;28;20193;-61
2021/06/06 06:31:36;;;;;;;99.85;52.30;;;;;;;;;;4988930;28;20187;-61
2021/06/06 06:34:02;;;;;;;84.88;49.70;;;;;;;;;;4978092;28;20742;-60
2021/06/06 06:36:30;;;;;;;99.90;53.15;;;;;;;;;;4985995;28;20216;-61
2021/06/06 06:38:56;;;;;;;117.28;53.30;;;;;;;;;;4987867;28;20188;-59
2021/06/06 06:41:28;;;;;;;86.13;49.20;;;;;;;;;;4978076;28;20431;-60
2021/06/06 06:43:56;;;;;;;93.30;51.45;;;;;;;;;;4992298;28;20172;-61
2021/06/06 06:46:25;;;;;;;82.63;47.05;;;;;;;;;;4983238;28;20687;-61
2021/06/06 06:48:56;;;;;;;72.28;44.70;;;;;;;;;;4987064;28;20200;-62
2021/06/06 06:51:24;;;;;;;66.35;45.25;;;;;;;;;;4984217;28;20211;-60
2021/06/06 06:53:54;;;;;;;72.50;44.95;;;;;;;;;;4991927;28;20188;-61
2021/06/06 06:56:23;;;;;;;72.90;46.10;;;;;;;;;;4984810;28;20262;-60
2021/06/06 06:58:54;;;;;;;69.38;44.85;;;;;;;;;;4980640;28;20221;-61
2021/06/06 07:01:20;;;;;;;68.45;44.60;;;;;;;;;;4977450;28;20288;-61
2021/06/06 07:03:48;;;;;;;70.07;45.97;;;;;;;;;;4989167;28;20267;-60
2021/06/06 07:06:18;;;;;;;77.07;45.75;;;;;;;;;;4976818;28;20216;-60
2021/06/06 07:08:45;;;;;;;71.93;43.63;;;;;;;;;;4990249;28;20198;-60
2021/06/06 07:11:15;;;;;;;68.18;43.50;;;;;;;;;;4979300;28;20615;-60
2021/06/06 07:13:43;;;;;;;78.80;45.20;;;;;;;;;;4984570;28;20195;-60
2021/06/06 07:16:10;;;;;;;62.72;39.92;;;;;;;;;;4978430;28;20217;-59
2021/06/06 07:18:36;;;;;;;63.08;40.42;;;;;;;;;;4983984;28;20653;-60
2021/06/06 07:21:06;;;;;;;70.03;42.25;;;;;;;;;;4983029;28;20215;-60
2021/06/06 07:23:33;;;;;;;65.85;41.25;;;;;;;;;;4977426;28;20200;-60
2021/06/06 07:26:04;;;;;;;63.67;39.28;;;;;;;;;;4982446;28;20616;-60
2021/06/06 07:28:32;;;;;;;60.47;37.83;;;;;;;;;;4987572;28;20231;-60
2021/06/06 07:31:03;;;;;;;64.70;38.25;;;;;;;;;;4988085;28;20290;-60
2021/06/06 07:33:33;;;;;;;61.42;36.15;;;;;;;;;;4978527;28;20238;-59
2021/06/06 07:36:01;;;;;;;51.88;36.33;;;;;;;;;;4979114;28;20287;-60
2021/06/06 07:38:28;;;;;;;52.78;33.90;;;;;;;;;;4983570;28;20191;-60
2021/06/06 07:40:57;;;;;;;56.67;35.00;;;;;;;;;;4983557;28;20218;-61
2021/06/06 07:43:25;;;;;;;53.60;34.58;;;;;;;;;;4984471;28;20674;-62
2021/06/06 07:45:54;;;;;;;50.40;32.97;;;;;;;;;;4983318;28;20217;-60
2021/06/06 07:48:20;;;;;;;51.08;32.88;;;;;;;;;;4984760;28;20192;-60
2021/06/06 07:50:47;;;;;;;45.10;29.88;;;;;;;;;;4989185;28;20211;-60
2021/06/06 07:53:18;;;;;;;48.40;30.38;;;;;;;;;;4985336;28;20188;-60
2021/06/06 07:55:45;;;;;;;46.13;31.27;;;;;;;;;;4987227;28;20231;-60
2021/06/06 07:58:17;;;;;;;45.38;31.77;;;;;;;;;;4973847;28;20519;-61
2021/06/06 08:00:43;;;;;;;47.10;30.58;;;;;;;;;;4983696;28;20250;-59
2021/06/06 08:03:11;;;;;;;44.78;30.92;;;;;;;;;;4981212;28;20192;-60
2021/06/06 08:05:39;;;;;;;45.50;30.95;;;;;;;;;;4984248;28;20271;-60
2021/06/06 08:08:12;;;;;;;50.38;33.40;;;;;;;;;;4993469;28;20192;-60
2021/06/06 08:10:42;;;;;;;51.42;33.25;;;;;;;;;;4999559;28;20194;-61
2021/06/06 08:13:08;;;;;;;43.67;31.65;;;;;;;;;;4982012;28;20188;-60
2021/06/06 08:15:36;;;;;;;46.40;32.42;;;;;;;;;;4979437;28;20216;-60
2021/06/06 08:18:06;;;;;;;42.42;29.83;;;;;;;;;;4984351;28;20192;-59
2021/06/06 08:20:38;;;;;;;45.50;31.00;;;;;;;;;;4986151;28;20212;-60
2021/06/06 08:23:07;;;;;;;40.67;29.52;;;;;;;;;;4985935;28;20184;-59
2021/06/06 08:25:32;;;;;;;42.35;29.70;;;;;;;;;;4988527;28;20762;-59
2021/06/06 08:27:58;;;;;;;40.55;29.92;;;;;;;;;;4981036;28;20287;-63
2021/06/06 08:30:34;;;;;;;52.65;34.38;;;;;;;;;;4982369;28;20565;-58
2021/06/06 08:33:03;;;;;;;53.45;35.60;;;;;;;;;;4979377;28;20668;-58
2021/06/06 08:35:28;;;;;;;53.30;35.75;;;;;;;;;;4986380;28;20222;-62
2021/06/06 08:37:55;;;;;;;59.30;39.22;;;;;;;;;;4978126;28;20193;-60
2021/06/06 08:40:35;;;;;;;61.83;38.20;;;;;;;;;;4990160;28;20201;-60
2021/06/06 08:43:05;;;;;;;69.10;40.33;;;;;;;;;;4986795;28;20192;-59
2021/06/06 08:46:01;;;;;;;63.30;39.60;;;;;;;;;;4986382;28;20270;-59
2021/06/06 08:48:31;;;;;;;70.90;40.17;;;;;;;;;;4983244;28;20211;-60
2021/06/06 08:51:10;;;;;;;72.70;42.10;;;;;;;;;;4992048;28;20322;-59
2021/06/06 08:54:17;;;;;;;67.95;41.33;;;;;;;;;;4986500;28;20191;-60
2021/06/06 08:56:43;;;;;;;70.80;47.67;;;;;;;;;;4986496;28;20443;-59
2021/06/06 08:59:19;;;;;;;65.85;41.83;;;;;;;;;;4982955;28;20653;-57
2021/06/06 09:02:11;;;;;;;53.15;36.88;;;;;;;;;;4977741;28;20565;-60
2021/06/06 09:04:39;;;;;;;53.42;35.80;;;;;;;;;;4978530;28;20243;-59
2021/06/06 09:07:26;;;;;;;52.33;36.30;;;;;;;;;;4986766;28;20180;-60
2021/06/06 09:09:54;;;;;;;48.78;33.40;;;;;;;;;;5001368;28;20180;-60
2021/06/06 09:12:22;;;;;;;48.72;33.97;;;;;;;;;;4988107;28;20608;-60
2021/06/06 09:14:50;;;;;;;45.85;33.42;;;;;;;;;;4987722;28;20711;-60
2021/06/06 09:17:19;;;;;;;48.85;34.53;;;;;;;;;;4978933;28;20275;-60
2021/06/06 09:19:57;;;;;;;46.85;33.45;;;;;;;;;;4977429;28;20201;-59
2021/06/06 09:22:43;;;;;;;47.03;33.65;;;;;;;;;;4995344;28;20242;-60
2021/06/06 09:25:27;;;;;;;47.35;34.38;;;;;;;;;;4985382;28;20715;-59
2021/06/06 09:28:12;;;;;;;44.63;33.47;;;;;;;;;;4976121;28;20656;-59
2021/06/06 09:30:40;;;;;;;42.90;32.75;;;;;;;;;;4976891;28;20199;-59
2021/06/06 09:33:14;;;;;;;43.22;32.85;;;;;;;;;;4976694;28;20203;-60
2021/06/06 09:36:19;;;;;;;41.08;32.88;;;;;;;;;;4978046;28;20718;-60
2021/06/06 09:38:49;;;;;;;39.10;32.15;;;;;;;;;;4960130;28;20255;-59
2021/06/06 09:41:33;;;;;;;38.42;32.08;;;;;;;;;;4979800;28;20235;-60
2021/06/06 09:44:06;;;;;;;40.00;32.60;;;;;;;;;;4973283;28;20180;-60
2021/06/06 09:46:48;;;;;;;43.65;33.10;;;;;;;;;;4976562;28;20274;-60
2021/06/06 09:49:28;;;;;;;38.58;31.42;;;;;;;;;;4980823;28;20264;-59
2021/06/06 09:51:58;;;;;;;40.20;32.00;;;;;;;;;;4975872;28;20244;-59
2021/06/06 09:54:34;;;;;;;38.25;31.95;;;;;;;;;;4979412;28;20851;-59
2021/06/06 09:57:04;;;;;;;40.03;31.73;;;;;;;;;;4975405;28;20195;-59
2021/06/06 09:59:32;;;;;;;34.65;29.85;;;;;;;;;;4975902;28;20428;-59
2021/06/06 10:02:27;;;;;;;35.05;28.88;;;;;;;;;;4973715;28;20335;-60
2021/06/06 10:05:04;;;;;;;36.15;27.70;;;;;;;;;;4964392;28;20193;-60
2021/06/06 10:07:37;;;;;;;32.42;27.83;;;;;;;;;;4977028;28;20254;-58
2021/06/06 10:10:24;;;;;;;31.40;25.98;;;;;;;;;;4979789;28;20204;-59
2021/06/06 10:12:53;;;;;;;30.17;25.35;;;;;;;;;;4989939;28;20191;-58
2021/06/06 10:15:45;;;;;;;31.83;25.60;;;;;;;;;;4982086;28;20811;-59
2021/06/06 10:18:20;;;;;;;32.35;25.42;;;;;;;;;;4978315;28;20188;-59
2021/06/06 10:20:54;;;;;;;30.85;25.38;;;;;;;;;;4988288;28;20293;-59
2021/06/06 10:23:38;;;;;;;30.58;24.58;;;;;;;;;;4987551;28;20210;-59
2021/06/06 10:26:14;;;;;;;29.48;24.02;;;;;;;;;;4983039;28;20323;-61
2021/06/06 10:28:56;;;;;;;27.45;24.10;;;;;;;;;;4986452;28;20222;-60
2021/06/06 10:31:44;;;;;;;26.48;23.58;;;;;;;;;;4979200;28;20203;-62
2021/06/06 10:34:38;;;;;;;26.73;23.40;;;;;;;;;;4976379;28;20275;-61
2021/06/06 10:37:04;;;;;;;26.45;23.00;;;;;;;;;;4977986;28;20216;-62
2021/06/06 10:39:36;;;;;;;23.85;21.30;;;;;;;;;;4975542;28;20188;-61
2021/06/06 10:42:09;;;;;;;24.80;22.13;;;;;;;;;;4980440;28;20191;-60
2021/06/06 10:44:50;;;;;;;24.33;21.67;;;;;;;;;;4983521;28;20328;-62
2021/06/06 10:47:23;;;;;;;23.95;21.35;;;;;;;;;;4995199;28;20183;-61
2021/06/06 10:49:55;;;;;;;24.75;21.95;;;;;;;;;;4981106;28;20558;-61
2021/06/06 10:52:25;;;;;;;24.38;21.75;;;;;;;;;;4979699;28;20219;-61
2021/06/06 10:54:57;;;;;;;24.23;21.33;;;;;;;;;;4979807;28;20705;-61
2021/06/06 10:57:25;;;;;;;24.15;21.15;;;;;;;;;;4977312;28;20246;-62
2021/06/06 10:59:59;;;;;;;25.42;21.58;;;;;;;;;;4981020;28;20547;-62
2021/06/06 11:02:40;;;;;;;21.85;19.63;;;;;;;;;;4980432;28;20262;-60
2021/06/06 11:05:32;;;;;;;24.88;20.70;;;;;;;;;;4979243;28;20218;-62
2021/06/06 11:07:59;;;;;;;21.75;19.50;;;;;;;;;;4970944;28;20212;-63
2021/06/06 11:10:39;;;;;;;22.27;20.08;;;;;;;;;;4979978;28;20207;-63
2021/06/06 11:13:29;;;;;;;22.23;19.92;;;;;;;;;;4980185;28;20302;-63
2021/06/06 11:16:05;;;;;;;22.13;19.83;;;;;;;;;;4979388;28;20293;-62
2021/06/06 11:18:56;;;;;;;21.80;19.30;;;;;;;;;;4982182;28;20187;-60
2021/06/06 11:21:30;;;;;;;21.33;18.65;;;;;;;;;;4979154;28;20235;-61
2021/06/06 11:23:58;;;;;;;22.83;20.17;;;;;;;;;;4979027;28;20196;-62
2021/06/06 11:26:31;;;;;;;25.10;19.27;;;;;;;;;;4981327;28;20212;-59
2021/06/06 11:29:25;;;;;;;21.70;19.40;;;;;;;;;;4979774;28;20610;-59
2021/06/06 11:32:13;;;;;;;22.77;20.38;;;;;;;;;;4979843;28;20327;-60
2021/06/06 11:34:45;;;;;;;22.90;20.45;;;;;;;;;;4981046;28;20212;-59
2021/06/06 11:37:32;;;;;;;22.75;20.35;;;;;;;;;;4981196;28;20210;-61
2021/06/06 11:40:03;;;;;;;22.88;20.58;;;;;;;;;;4983997;28;20195;-60
2021/06/06 11:42:36;;;;;;;21.95;19.70;;;;;;;;;;4983160;28;20278;-61
2021/06/06 11:45:18;;;;;;;21.60;19.30;;;;;;;;;;4980492;28;20791;-59
2021/06/06 11:47:56;;;;;;;22.42;19.83;;;;;;;;;;4980003;28;20195;-60
2021/06/06 11:50:35;;;;;;;21.65;19.40;;;;;;;;;;4981380;28;20188;-61
2021/06/06 11:53:09;;;;;;;21.27;18.75;;;;;;;;;;4981208;28;20211;-58
2021/06/06 11:55:39;;;;;;;22.92;19.63;;;;;;;;;;4980628;28;20315;-60
2021/06/06 11:58:18;;;;;;;20.98;18.88;;;;;;;;;;4981693;28;20224;-60
2021/06/06 12:00:53;;;;;;;21.85;19.52;;;;;;;;;;4982579;28;20202;-60
2021/06/06 12:03:31;;;;;;;22.42;19.85;;;;;;;;;;4979248;28;20187;-61
2021/06/06 12:06:07;;;;;;;21.52;19.33;;;;;;;;;;4981505;28;20263;-60
2021/06/06 12:08:39;;;;;;;23.55;20.92;;;;;;;;;;4981012;28;20570;-61
2021/06/06 12:11:16;;;;;;;26.55;23.75;;;;;;;;;;4979119;28;20258;-61
2021/06/06 12:13:45;;;;;;;25.90;23.20;;;;;;;;;;4986223;28;20275;-60
2021/06/06 12:16:26;;;;;;;26.75;24.05;;;;;;;;;;4976948;28;20242;-60
2021/06/06 12:19:27;;;;;;;25.83;23.10;;;;;;;;;;4984396;28;20921;-61
2021/06/06 12:22:08;;;;;;;26.55;23.75;;;;;;;;;;4971383;28;20215;-60
2021/06/06 12:24:33;;;;;;;26.90;23.90;;;;;;;;;;4985018;28;20208;-60
2021/06/06 12:27:11;;;;;;;26.17;23.48;;;;;;;;;;4990145;28;20699;-60
2021/06/06 12:29:45;;;;;;;27.23;24.33;;;;;;;;;;4991095;28;20307;-59
2021/06/06 12:32:20;;;;;;;28.02;25.02;;;;;;;;;;4990960;28;20862;-61
2021/06/06 12:34:45;;;;;;;29.08;25.80;;;;;;;;;;4983066;28;20684;-62
2021/06/06 12:37:20;;;;;;;28.73;25.65;;;;;;;;;;4984564;28;20194;-60
2021/06/06 12:39:51;;;;;;;30.45;25.50;;;;;;;;;;4983089;28;20238;-60
2021/06/06 12:42:17;;;;;;;27.92;24.98;;;;;;;;;;4995650;28;20195;-61
2021/06/06 12:44:48;;;;;;;29.08;25.90;;;;;;;;;;4974341;28;20250;-60
2021/06/06 12:47:43;;;;;;;28.08;25.08;;;;;;;;;;4980130;28;20203;-60
2021/06/06 12:50:16;;;;;;;25.27;22.63;;;;;;;;;;4978337;28;20638;-61
2021/06/06 12:53:00;;;;;;;25.77;22.95;;;;;;;;;;4986774;28;20737;-60
2021/06/06 12:55:31;;;;;;;25.58;22.17;;;;;;;;;;4989063;28;20274;-59
2021/06/06 12:58:12;;;;;;;26.35;23.65;;;;;;;;;;4984421;28;20322;-60
2021/06/06 13:00:45;;;;;;;24.65;22.05;;;;;;;;;;4982025;28;20180;-61
2021/06/06 13:03:32;;;;;;;28.38;22.80;;;;;;;;;;4991718;28;20200;-62
2021/06/06 13:06:15;;;;;;;24.80;20.50;;;;;;;;;;4978354;28;20211;-61
2021/06/06 13:08:44;;;;;;;25.25;22.75;;;;;;;;;;4981719;28;20206;-60
2021/06/06 13:11:29;;;;;;;23.13;20.75;;;;;;;;;;4989800;28;20202;-58
2021/06/06 13:14:04;;;;;;;24.52;22.02;;;;;;;;;;4985449;28;20272;-60
2021/06/06 13:16:42;;;;;;;23.67;21.20;;;;;;;;;;4983031;28;20220;-60
2021/06/06 13:19:18;;;;;;;24.23;21.65;;;;;;;;;;4986125;28;20204;-60
2021/06/06 13:22:05;;;;;;;25.00;21.52;;;;;;;;;;4979500;28;20199;-60
2021/06/06 13:24:40;;;;;;;24.10;21.58;;;;;;;;;;4981512;28;20194;-61
2021/06/06 13:27:15;;;;;;;24.15;21.65;;;;;;;;;;4990010;28;20553;-59
2021/06/06 13:29:47;;;;;;;26.33;23.35;;;;;;;;;;4983984;28;20716;-60
2021/06/06 13:32:20;;;;;;;23.35;20.95;;;;;;;;;;4988624;28;20286;-59
2021/06/06 13:35:00;;;;;;;24.65;22.15;;;;;;;;;;4974907;28;20220;-59
2021/06/06 13:37:30;;;;;;;26.67;24.02;;;;;;;;;;4988217;28;20709;-59
2021/06/06 13:40:06;;;;;;;26.27;23.13;;;;;;;;;;4989809;28;20589;-60
2021/06/06 13:42:33;;;;;;;24.25;21.75;;;;;;;;;;4978348;28;20190;-60
2021/06/06 13:44:59;;;;;;;24.35;21.75;;;;;;;;;;4921837;22;2792488;-57
2021/06/06 13:47:27;;;;;;;24.60;22.10;;;;;;;;;;5009680;28;20230;-58
2021/06/06 13:49:55;;;;;;;25.80;22.98;;;;;;;;;;5011531;28;20191;-57
2021/06/06 13:52:21;;;;;;;25.35;22.70;;;;;;;;;;5006094;28;20249;-58
2021/06/06 13:54:47;;;;;;;26.98;22.35;;;;;;;;;;4979297;28;20191;-58
2021/06/06 13:57:15;;;;;;;26.70;23.83;;;;;;;;;;5001205;28;20211;-56
2021/06/06 13:59:42;;;;;;;25.50;22.50;;;;;;;;;;5000326;28;20199;-57
2021/06/06 14:02:17;;;;;;;24.70;22.10;;;;;;;;;;5006626;28;20198;-58
2021/06/06 14:04:45;;;;;;;25.85;22.65;;;;;;;;;;5005817;28;20589;-57
2021/06/06 14:07:10;;;;;;;25.75;22.50;;;;;;;;;;5006478;28;20295;-56
2021/06/06 14:09:36;;;;;;;28.10;23.92;;;;;;;;;;5006763;28;20286;-55
2021/06/06 14:12:08;;;;;;;26.20;23.40;;;;;;;;;;5005583;28;20187;-57
2021/06/06 14:14:33;;;;;;;26.40;23.40;;;;;;;;;;5005638;28;20686;-56
2021/06/06 14:17:01;;;;;;;28.75;24.60;;;;;;;;;;4998390;28;20212;-58
2021/06/06 14:19:28;;;;;;;26.50;23.55;;;;;;;;;;4997259;28;20200;-58
2021/06/06 14:21:55;;;;;;;27.05;24.25;;;;;;;;;;5006814;28;20249;-57
2021/06/06 14:24:22;;;;;;;27.92;24.58;;;;;;;;;;5009981;28;20647;-57
2021/06/06 14:26:51;;;;;;;27.42;24.30;;;;;;;;;;5004879;28;20680;-57
2021/06/06 14:29:19;;;;;;;27.42;24.02;;;;;;;;;;5010746;28;20187;-57
2021/06/06 14:31:48;;;;;;;27.50;24.50;;;;;;;;;;4998875;28;20191;-58
2021/06/06 14:34:19;;;;;;;31.30;25.48;;;;;;;;;;4991173;28;20199;-57
2021/06/06 14:36:45;;;;;;;30.55;25.10;;;;;;;;;;4981182;28;20258;-58
2021/06/06 14:39:16;;;;;;;27.45;24.05;;;;;;;;;;4983158;28;20184;-57
2021/06/06 14:41:46;;;;;;;29.10;23.42;;;;;;;;;;5004323;28;20242;-57
2021/06/06 14:44:12;;;;;;;30.67;24.77;;;;;;;;;;5012652;28;20338;-56